Time;durP1;ratioP1;P1;durP2;ratioP2;P2;SDS_P1;SDS_P2;PMS_P1;PMS_P2;Temp;Humidity;BMP_temperature;BMP_pressure;BME280_temperature;BME280_humidity;BME280_pressure;Samples;Min_cycle;Max_cycle;Signal;HPM_P1;HPM_P2
2023/01/30 00:00:54;;;;;;;3.73;2.53;;;-3.70;99.90;;;;;;5050570;28;20536;-48
2023/01/30 00:03:22;;;;;;;5.43;3.10;;;-3.80;99.90;;;;;;5049617;28;20560;-48
2023/01/30 00:05:49;;;;;;;7.10;3.37;;;-4.00;99.90;;;;;;5050669;28;20536;-48
2023/01/30 00:08:16;;;;;;;2.83;1.80;;;-4.00;99.90;;;;;;5049766;28;20543;-48
2023/01/30 00:10:43;;;;;;;3.73;1.93;;;-3.90;99.90;;;;;;5050272;28;20536;-46
2023/01/30 00:13:10;;;;;;;1.70;1.60;;;-3.90;99.90;;;;;;5049701;28;20538;-48
2023/01/30 00:15:38;;;;;;;1.93;1.27;;;-3.90;99.90;;;;;;5034402;28;20527;-49
2023/01/30 00:18:05;;;;;;;2.90;1.50;;;-3.70;99.90;;;;;;5030522;28;20546;-49
2023/01/30 00:20:32;;;;;;;2.50;2.30;;;-3.60;99.90;;;;;;5029727;28;20534;-48
2023/01/30 00:22:59;;;;;;;1.50;1.30;;;-3.40;99.90;;;;;;5029329;28;20536;-49
2023/01/30 00:25:27;;;;;;;2.80;1.60;;;-3.50;99.90;;;;;;5029673;28;20539;-48
2023/01/30 00:27:54;;;;;;;1.50;1.40;;;-3.70;99.90;;;;;;5030396;28;20551;-48
2023/01/30 00:30:21;;;;;;;1.27;1.17;;;-3.50;99.90;;;;;;5030091;28;20528;-48
2023/01/30 00:32:54;;;;;;;1.43;1.33;;;-3.50;99.90;;;;;;5030783;28;20550;-52
2023/01/30 00:35:21;;;;;;;1.87;1.77;;;-3.60;99.90;;;;;;5029775;28;20543;-48
2023/01/30 00:37:48;;;;;;;2.20;1.20;;;-3.50;99.90;;;;;;5029946;28;20569;-48
2023/01/30 00:40:15;;;;;;;2.40;1.40;;;-3.40;99.90;;;;;;5030125;28;20525;-45
2023/01/30 00:48:11;;;;;;;1.30;1.20;;;-4.10;99.90;;;;;;5049891;28;20449;-48
2023/01/30 00:50:44;;;;;;;2.27;1.40;;;-3.80;99.90;;;;;;5049811;28;20528;-47
2023/01/30 00:53:11;;;;;;;1.57;1.40;;;-3.70;99.90;;;;;;5029510;28;20454;-51
2023/01/30 00:55:38;;;;;;;4.33;1.30;;;-3.80;99.90;;;;;;5028376;28;20539;-48
2023/01/30 00:58:06;;;;;;;3.87;2.23;;;-4.00;99.90;;;;;;5029141;28;20545;-48
2023/01/30 01:00:33;;;;;;;3.63;2.50;;;-4.10;99.90;;;;;;5029357;28;20531;-49
2023/01/30 01:03:01;;;;;;;3.43;2.37;;;-4.70;99.90;;;;;;5029750;28;20521;-48
2023/01/30 01:05:29;;;;;;;2.80;1.77;;;-4.70;99.90;;;;;;5049345;28;20561;-50
2023/01/30 01:07:56;;;;;;;2.73;1.90;;;-4.30;99.90;;;;;;5049537;28;21034;-48
2023/01/30 01:10:23;;;;;;;3.07;2.47;;;-4.20;99.90;;;;;;5048476;28;20521;-47
2023/01/30 01:12:52;;;;;;;1.55;1.45;;;-4.00;99.90;;;;;;5051707;28;20450;-47
2023/01/30 01:15:19;;;;;;;1.63;1.53;;;-3.90;99.90;;;;;;5052105;28;20191;-48
2023/01/30 01:17:46;;;;;;;3.10;2.10;;;-3.90;99.90;;;;;;5052352;28;21004;-48
2023/01/30 01:20:13;;;;;;;3.00;2.07;;;-3.90;99.90;;;;;;5052360;28;20536;-48
2023/01/30 01:22:42;;;;;;;2.70;1.83;;;-4.10;99.90;;;;;;5052209;28;20533;-48
2023/01/30 01:25:10;;;;;;;2.10;1.57;;;-4.20;99.90;;;;;;5051755;28;21081;-50
2023/01/30 01:27:37;;;;;;;1.67;1.30;;;-4.20;99.90;;;;;;5051876;28;20578;-47
2023/01/30 01:30:05;;;;;;;2.23;1.60;;;-4.10;99.90;;;;;;5052387;28;20899;-47
2023/01/30 01:32:32;;;;;;;2.70;1.57;;;-3.90;99.90;;;;;;5051804;28;20531;-48
2023/01/30 01:34:59;;;;;;;2.97;1.90;;;-4.00;99.90;;;;;;5051295;28;20515;-47
2023/01/30 01:37:25;;;;;;;1.80;1.23;;;-4.10;99.90;;;;;;5051414;28;20307;-51
2023/01/30 01:42:40;;;;;;;2.07;1.30;;;-4.00;99.90;;;;;;5033260;28;20508;-50
2023/01/30 01:45:19;;;;;;;1.40;1.30;;;-3.90;99.90;;;;;;5045633;28;20560;-48
2023/01/30 01:47:55;;;;;;;3.03;1.50;;;-4.00;99.90;;;;;;5052673;28;20549;-48
2023/01/30 01:50:25;;;;;;;3.53;1.67;;;-4.20;99.90;;;;;;5052572;28;20533;-47
2023/01/30 01:52:54;;;;;;;1.90;1.70;;;-4.10;99.90;;;;;;5046210;28;20532;-46
2023/01/30 01:55:24;;;;;;;4.00;1.63;;;-4.40;99.90;;;;;;5042690;28;20872;-48
2023/01/30 01:57:56;;;;;;;3.03;1.90;;;-4.70;99.90;;;;;;5052065;28;20457;-46
2023/01/30 02:00:23;;;;;;;3.07;1.37;;;-4.90;99.90;;;;;;5051772;28;20537;-48
2023/01/30 02:02:56;;;;;;;1.50;1.40;;;-4.80;99.90;;;;;;5053265;28;20525;-47
2023/01/30 02:05:25;;;;;;;1.67;1.50;;;-4.70;99.90;;;;;;5048580;28;20227;-49
2023/01/30 02:08:00;;;;;;;2.07;1.50;;;-4.60;99.90;;;;;;5048086;28;20305;-48
2023/01/30 02:10:36;;;;;;;2.60;2.00;;;-4.40;99.90;;;;;;5052491;28;20445;-48
2023/01/30 02:13:03;;;;;;;2.40;1.52;;;-4.30;99.90;;;;;;5041846;28;20524;-47
2023/01/30 02:15:31;;;;;;;1.87;1.20;;;-4.30;99.90;;;;;;5032244;28;20281;-49
2023/01/30 02:17:57;;;;;;;2.13;0.73;;;-4.30;99.90;;;;;;5031998;28;20551;-48
2023/01/30 02:20:34;;;;;;;1.97;1.27;;;-4.60;99.90;;;;;;5045781;28;20474;-49
2023/01/30 02:23:28;;;;;;;1.37;0.80;;;-4.70;99.90;;;;;;5052238;28;20533;-47
2023/01/30 02:26:22;;;;;;;1.67;0.93;;;-4.60;99.90;;;;;;5021362;28;20830;-48
2023/01/30 02:29:25;;;;;;;1.40;1.13;;;-4.30;99.90;;;;;;5051712;28;20544;-48
2023/01/30 02:31:59;;;;;;;1.55;1.00;;;-4.40;99.90;;;;;;5018426;28;20552;-47
2023/01/30 02:34:40;;;;;;;2.70;1.50;;;-4.50;99.90;;;;;;5051050;28;20282;-49
2023/01/30 02:37:17;;;;;;;1.80;1.40;;;-4.70;99.90;;;;;;5051767;28;20543;-48
2023/01/30 02:39:57;;;;;;;2.67;1.48;;;-4.60;99.90;;;;;;5052187;28;20623;-49
2023/01/30 02:42:29;;;;;;;1.40;1.00;;;-4.50;99.90;;;;;;5051526;28;20282;-50
2023/01/30 02:45:05;;;;;;;1.57;1.47;;;-4.60;99.90;;;;;;5051844;28;20658;-47
2023/01/30 02:47:39;;;;;;;1.00;0.90;;;-4.70;99.90;;;;;;5051068;28;20580;-48
2023/01/30 02:50:12;;;;;;;1.50;1.35;;;-4.60;99.90;;;;;;5052053;28;20533;-47
2023/01/30 02:52:40;;;;;;;1.40;1.17;;;-4.70;99.90;;;;;;5051827;28;20284;-48
2023/01/30 02:55:09;;;;;;;1.27;0.97;;;-4.60;99.90;;;;;;5049679;28;20517;-49
2023/01/30 02:57:36;;;;;;;2.20;1.13;;;-4.30;99.90;;;;;;5050190;28;20475;-48
2023/01/30 03:00:06;;;;;;;1.27;1.10;;;-4.20;99.90;;;;;;5049997;28;20715;-49
2023/01/30 03:03:06;;;;;;;2.07;1.83;;;-4.90;99.90;;;;;;5049728;28;20278;-49
2023/01/30 03:05:48;;;;;;;1.17;1.07;;;-5.00;99.90;;;;;;5049738;28;20485;-48
2023/01/30 03:08:25;;;;;;;2.85;1.23;;;-5.10;99.90;;;;;;5049548;28;20553;-47
2023/01/30 03:10:57;;;;;;;3.77;1.40;;;-5.00;99.90;;;;;;5049594;28;20736;-48
2023/01/30 03:13:33;;;;;;;3.43;2.07;;;-5.00;99.90;;;;;;5049902;28;20543;-49
2023/01/30 03:16:04;;;;;;;1.60;1.50;;;-5.20;99.90;;;;;;5051306;28;20996;-48
2023/01/30 03:18:33;;;;;;;2.80;1.70;;;-5.40;99.90;;;;;;5050442;28;20541;-48
2023/01/30 03:21:04;;;;;;;1.98;1.25;;;-4.90;99.90;;;;;;5050624;28;20531;-48
2023/01/30 03:23:31;;;;;;;2.13;1.53;;;-4.60;99.90;;;;;;5050248;28;20275;-48
2023/01/30 03:25:59;;;;;;;2.00;1.53;;;-4.50;99.90;;;;;;5051031;28;20552;-47
2023/01/30 03:28:27;;;;;;;1.73;1.20;;;-4.40;99.90;;;;;;5050738;28;20550;-48
2023/01/30 03:30:54;;;;;;;1.20;1.10;;;-4.70;99.90;;;;;;5050899;28;20282;-48
2023/01/30 03:33:20;;;;;;;1.63;1.52;;;-4.60;99.90;;;;;;5049884;28;20528;-48
2023/01/30 03:35:49;;;;;;;2.93;2.20;;;-4.50;99.90;;;;;;5050779;28;20259;-48
2023/01/30 03:38:17;;;;;;;1.30;1.20;;;-4.80;99.90;;;;;;5044608;28;20551;-47
2023/01/30 03:40:44;;;;;;;1.60;1.23;;;-4.80;99.90;;;;;;5045359;28;20438;-49
2023/01/30 03:43:11;;;;;;;1.93;1.07;;;-4.60;99.90;;;;;;5047732;28;20753;-48
2023/01/30 03:45:38;;;;;;;1.50;1.30;;;-4.50;99.90;;;;;;5047445;28;20524;-49
2023/01/30 03:48:05;;;;;;;1.55;1.40;;;-4.40;99.90;;;;;;5048052;28;20323;-45
2023/01/30 03:50:31;;;;;;;1.93;1.03;;;-4.30;99.90;;;;;;5049176;28;20488;-47
2023/01/30 03:53:00;;;;;;;1.90;1.30;;;-4.40;99.90;;;;;;5048717;28;20875;-46
2023/01/30 03:55:27;;;;;;;0.80;0.60;;;-4.20;99.90;;;;;;5048058;28;20537;-47
2023/01/30 03:57:56;;;;;;;1.03;0.93;;;-4.30;99.90;;;;;;5050099;28;20546;-45
2023/01/30 04:00:23;;;;;;;1.00;0.80;;;-4.60;99.90;;;;;;5049934;28;20443;-48
2023/01/30 04:02:50;;;;;;;1.43;0.90;;;-4.60;99.90;;;;;;5050774;28;20881;-47
2023/01/30 04:05:17;;;;;;;1.73;0.87;;;-4.60;99.90;;;;;;5049622;28;20573;-48
2023/01/30 04:07:44;;;;;;;0.80;0.60;;;-4.80;99.90;;;;;;5050464;28;20542;-48
2023/01/30 04:10:14;;;;;;;1.30;1.00;;;-4.60;99.90;;;;;;5049933;28;20525;-48
2023/01/30 04:12:41;;;;;;;3.43;1.90;;;-4.40;99.90;;;;;;5046260;28;20448;-48
2023/01/30 04:15:09;;;;;;;2.97;1.80;;;-4.40;99.90;;;;;;5048354;28;20925;-47
2023/01/30 04:17:36;;;;;;;1.65;1.25;;;-4.40;99.90;;;;;;5047989;28;20556;-48
2023/01/30 04:20:04;;;;;;;1.60;1.10;;;-4.40;99.90;;;;;;5049606;28;20280;-49
2023/01/30 04:22:31;;;;;;;2.13;1.30;;;-4.30;99.90;;;;;;5048435;28;20476;-48
2023/01/30 04:24:58;;;;;;;2.10;1.10;;;-4.70;99.90;;;;;;5048119;28;20476;-48
2023/01/30 04:27:26;;;;;;;1.27;0.90;;;-4.60;99.90;;;;;;5043101;28;20545;-47
2023/01/30 04:29:53;;;;;;;1.73;0.90;;;-4.40;99.90;;;;;;5030558;28;20292;-48
2023/01/30 04:32:20;;;;;;;2.00;0.70;;;-4.30;99.90;;;;;;5029134;28;20540;-51
2023/01/30 04:34:47;;;;;;;1.00;0.70;;;-4.40;99.90;;;;;;5028358;28;21175;-48
2023/01/30 04:37:14;;;;;;;1.10;0.83;;;-4.50;99.90;;;;;;5028324;28;20539;-45
2023/01/30 04:39:41;;;;;;;0.90;0.73;;;-4.30;99.90;;;;;;5034936;28;20527;-51
2023/01/30 04:42:08;;;;;;;1.03;0.93;;;-4.20;99.90;;;;;;5048950;28;20534;-48
2023/01/30 04:44:36;;;;;;;0.90;0.80;;;-4.10;99.90;;;;;;5047670;28;20566;-47
2023/01/30 04:47:03;;;;;;;0.90;0.77;;;-4.50;99.90;;;;;;5047780;28;20540;-47
2023/01/30 04:49:30;;;;;;;1.30;0.93;;;-5.50;99.90;;;;;;5050129;28;20537;-48
2023/01/30 04:51:56;;;;;;;1.40;1.10;;;-5.90;99.90;;;;;;5050306;28;20231;-47
2023/01/30 04:54:23;;;;;;;1.40;0.90;;;-5.60;99.90;;;;;;5046961;28;20530;-47
2023/01/30 04:56:50;;;;;;;2.23;1.47;;;-5.20;99.90;;;;;;5049752;28;20282;-48
2023/01/30 04:59:17;;;;;;;1.35;1.02;;;-5.10;99.90;;;;;;5029850;28;20549;-47
2023/01/30 05:01:45;;;;;;;1.98;1.58;;;-4.70;99.90;;;;;;5038773;28;20284;-47
2023/01/30 05:04:13;;;;;;;1.23;1.13;;;-4.50;99.90;;;;;;5048789;28;20558;-50
2023/01/30 05:06:40;;;;;;;1.20;1.00;;;-4.40;99.90;;;;;;5048463;28;20306;-47
2023/01/30 05:09:07;;;;;;;2.38;2.13;;;-4.30;99.90;;;;;;5048143;28;20540;-49
2023/01/30 05:11:34;;;;;;;3.20;2.92;;;-4.80;99.90;;;;;;5043538;28;20284;-47
2023/01/30 05:14:01;;;;;;;2.03;1.70;;;-4.70;99.90;;;;;;5052075;22;20314;-50
2023/01/30 05:16:29;;;;;;;2.20;1.40;;;-4.60;99.90;;;;;;5028178;28;20526;-48
2023/01/30 05:18:57;;;;;;;1.67;1.33;;;-4.60;99.90;;;;;;5027696;28;20486;-49
2023/01/30 05:21:26;;;;;;;1.90;1.50;;;-5.00;99.90;;;;;;5027534;28;20539;-51
2023/01/30 05:23:54;;;;;;;2.90;1.73;;;-4.80;99.90;;;;;;5026522;28;20477;-49
2023/01/30 05:26:22;;;;;;;1.30;1.10;;;-4.80;99.90;;;;;;5027037;28;20561;-49
2023/01/30 05:28:52;;;;;;;19.97;17.87;;;-4.70;99.90;;;;;;5028083;28;20543;-49
2023/01/30 05:31:19;;;;;;;1.50;1.40;;;-4.80;99.90;;;;;;5027808;28;20473;-48
2023/01/30 05:33:48;;;;;;;2.15;1.42;;;-5.50;99.90;;;;;;5027877;28;20554;-50
2023/01/30 05:36:17;;;;;;;6.97;1.45;;;-5.30;99.90;;;;;;5028496;28;20223;-50
2023/01/30 05:38:45;;;;;;;1.70;1.40;;;-5.50;99.90;;;;;;5029064;28;20296;-51
2023/01/30 05:41:14;;;;;;;1.30;1.20;;;-5.00;99.90;;;;;;5028782;28;20271;-49
2023/01/30 05:43:41;;;;;;;3.78;2.72;;;-4.60;99.90;;;;;;5027805;28;20647;-50
2023/01/30 05:46:10;;;;;;;3.80;3.50;;;-4.40;99.90;;;;;;5029359;28;20299;-49
2023/01/30 05:48:37;;;;;;;2.85;2.15;;;-4.90;99.90;;;;;;5028805;28;20537;-50
2023/01/30 05:51:04;;;;;;;3.50;3.20;;;-5.40;99.90;;;;;;5026159;28;20315;-49
2023/01/30 05:53:34;;;;;;;4.30;3.90;;;-5.20;99.90;;;;;;5025852;28;20550;-51
2023/01/30 05:56:03;;;;;;;3.45;2.92;;;-5.50;99.90;;;;;;5029083;28;20212;-48
2023/01/30 05:58:31;;;;;;;4.03;2.85;;;-5.60;99.90;;;;;;5030756;28;20294;-49
2023/01/30 06:01:01;;;;;;;2.65;1.70;;;-5.20;99.90;;;;;;5028845;28;20279;-49
2023/01/30 06:03:28;;;;;;;4.88;3.55;;;-5.00;99.90;;;;;;5025403;28;20217;-51
2023/01/30 06:05:55;;;;;;;4.40;3.92;;;-5.30;99.90;;;;;;5024370;28;20299;-49
2023/01/30 06:08:22;;;;;;;2.22;1.95;;;-5.00;99.90;;;;;;5021345;28;20386;-49
2023/01/30 06:10:50;;;;;;;2.60;2.25;;;-4.80;99.90;;;;;;5025548;28;20294;-50
2023/01/30 06:13:17;;;;;;;3.70;1.70;;;-4.60;99.90;;;;;;5021094;28;20287;-50
2023/01/30 06:15:44;;;;;;;2.90;2.28;;;-4.30;99.90;;;;;;5027296;28;20197;-48
2023/01/30 06:18:11;;;;;;;2.77;1.70;;;-4.10;99.90;;;;;;5027486;28;20780;-49
2023/01/30 06:20:38;;;;;;;4.23;3.73;;;-4.10;99.90;;;;;;5030727;28;20543;-48
2023/01/30 06:23:05;;;;;;;8.47;6.20;;;-4.10;99.90;;;;;;5029020;28;20563;-51
2023/01/30 06:25:32;;;;;;;11.07;6.90;;;-4.40;99.90;;;;;;5024861;28;20497;-50
2023/01/30 06:28:00;;;;;;;10.67;5.63;;;-4.40;99.90;;;;;;5023017;28;20553;-49
2023/01/30 06:30:27;;;;;;;7.00;5.27;;;-4.70;99.90;;;;;;5022871;28;20981;-48
2023/01/30 06:32:54;;;;;;;6.43;4.63;;;-4.70;99.90;;;;;;5014013;28;20524;-53
2023/01/30 06:35:21;;;;;;;9.13;4.83;;;-4.50;99.90;;;;;;5011687;28;20520;-48
2023/01/30 06:37:47;;;;;;;5.07;3.83;;;-4.40;99.90;;;;;;5012549;28;20521;-48
2023/01/30 06:40:14;;;;;;;6.63;5.50;;;-4.60;99.90;;;;;;5011372;28;20479;-50
2023/01/30 06:42:45;;;;;;;5.17;3.67;;;-4.80;99.90;;;;;;5010633;28;20556;-48
2023/01/30 06:45:14;;;;;;;3.40;3.07;;;-5.10;99.90;;;;;;5011314;28;20477;-48
2023/01/30 06:47:45;;;;;;;3.95;3.35;;;-4.80;99.90;;;;;;5012138;28;20877;-50
2023/01/30 06:50:12;;;;;;;9.88;5.25;;;-4.60;99.90;;;;;;5024758;28;20287;-49
2023/01/30 06:52:41;;;;;;;6.68;5.32;;;-5.60;99.90;;;;;;5030971;28;20291;-51
2023/01/30 06:55:09;;;;;;;5.95;4.63;;;-6.30;99.90;;;;;;5025095;28;20220;-52
2023/01/30 06:57:36;;;;;;;8.65;5.97;;;-6.20;99.90;;;;;;5011361;28;20292;-49
2023/01/30 07:00:04;;;;;;;4.20;3.30;;;-5.80;99.90;;;;;;5011177;28;20288;-49
2023/01/30 07:02:34;;;;;;;13.65;3.65;;;-5.60;99.90;;;;;;5011706;28;20288;-51
2023/01/30 07:05:01;;;;;;;3.40;2.63;;;-5.70;99.90;;;;;;5011241;28;20247;-48
2023/01/30 07:07:29;;;;;;;3.10;2.70;;;-5.60;99.90;;;;;;5011483;28;20238;-49
2023/01/30 07:09:57;;;;;;;5.30;3.33;;;-5.30;99.90;;;;;;5009651;28;20291;-50
2023/01/30 07:12:24;;;;;;;3.60;2.70;;;-4.90;99.90;;;;;;5010163;28;20284;-49
2023/01/30 07:14:51;;;;;;;6.13;3.23;;;-4.70;99.90;;;;;;5009669;28;20478;-49
2023/01/30 07:17:18;;;;;;;4.15;3.55;;;-4.70;99.90;;;;;;5009460;28;20515;-49
2023/01/30 07:19:46;;;;;;;4.68;3.22;;;-4.80;99.90;;;;;;5010472;28;20292;-49
2023/01/30 07:22:14;;;;;;;6.70;3.83;;;-4.80;99.90;;;;;;5010782;28;20292;-51
2023/01/30 07:24:41;;;;;;;4.37;3.97;;;-4.90;99.90;;;;;;5010189;28;20558;-50
2023/01/30 07:27:09;;;;;;;5.90;4.03;;;-4.90;99.90;;;;;;5011724;28;20519;-49
2023/01/30 07:29:36;;;;;;;6.10;4.77;;;-4.90;99.90;;;;;;5011399;28;20539;-49
2023/01/30 07:32:04;;;;;;;5.83;2.83;;;-4.70;99.90;;;;;;5011825;28;20527;-51
2023/01/30 07:34:31;;;;;;;4.17;3.03;;;-4.60;99.90;;;;;;5010362;28;20502;-51
2023/01/30 07:36:59;;;;;;;6.47;3.40;;;-4.70;99.90;;;;;;5011311;28;20528;-49
2023/01/30 07:39:26;;;;;;;5.90;4.00;;;-4.70;99.90;;;;;;5010247;28;20966;-49
2023/01/30 07:41:53;;;;;;;9.27;7.40;;;-4.60;99.90;;;;;;5011055;28;20893;-49
2023/01/30 07:44:20;;;;;;;7.07;4.73;;;-4.60;99.90;;;;;;5010000;28;21056;-51
2023/01/30 07:46:47;;;;;;;9.10;6.70;;;-4.50;99.90;;;;;;5011348;28;20570;-50
2023/01/30 07:49:14;;;;;;;4.40;3.97;;;-4.50;99.90;;;;;;5010940;28;20547;-54
2023/01/30 07:51:40;;;;;;;6.55;5.03;;;-4.50;99.90;;;;;;5011306;28;20545;-50
2023/01/30 07:54:09;;;;;;;6.93;4.00;;;-4.40;99.90;;;;;;5010698;28;20335;-48
2023/01/30 07:56:36;;;;;;;6.87;3.93;;;-4.50;99.90;;;;;;5010449;28;20528;-51
2023/01/30 07:59:04;;;;;;;2.87;2.23;;;-4.30;99.90;;;;;;5010709;28;20533;-49
2023/01/30 08:01:31;;;;;;;6.70;3.57;;;-4.30;99.90;;;;;;5010502;28;20457;-51
2023/01/30 08:03:58;;;;;;;8.00;5.40;;;-4.30;99.90;;;;;;5010016;28;20556;-50
2023/01/30 08:06:25;;;;;;;8.83;6.27;;;-4.20;99.90;;;;;;5010176;28;20568;-51
2023/01/30 08:08:52;;;;;;;8.52;7.40;;;-4.80;99.90;;;;;;5010842;28;20891;-51
2023/01/30 08:11:20;;;;;;;9.57;7.78;;;-5.10;99.90;;;;;;5009750;28;20290;-49
2023/01/30 08:13:47;;;;;;;6.07;5.47;;;-5.20;99.90;;;;;;5009997;28;20319;-49
2023/01/30 08:16:14;;;;;;;4.77;4.37;;;-5.20;99.90;;;;;;5010159;28;20527;-51
2023/01/30 08:18:41;;;;;;;5.63;3.10;;;-5.00;99.90;;;;;;5010129;28;20538;-50
2023/01/30 08:21:08;;;;;;;2.88;2.53;;;-4.70;99.90;;;;;;5010502;28;20284;-50
2023/01/30 08:23:35;;;;;;;5.43;3.40;;;-4.80;99.90;;;;;;5009724;28;20231;-49
2023/01/30 08:26:05;;;;;;;2.78;2.22;;;-4.80;99.90;;;;;;5010146;28;20327;-53
2023/01/30 08:28:33;;;;;;;3.72;3.33;;;-4.60;99.90;;;;;;5010448;28;20240;-49
2023/01/30 08:31:00;;;;;;;1.93;1.73;;;-4.50;99.90;;;;;;5010561;28;20289;-49
2023/01/30 08:33:27;;;;;;;3.10;2.63;;;-4.10;99.90;;;;;;5009324;28;21031;-50
2023/01/30 08:35:56;;;;;;;7.57;5.72;;;-3.90;99.90;;;;;;5010103;28;20518;-49
2023/01/30 08:38:22;;;;;;;11.45;9.63;;;-4.00;99.90;;;;;;5009345;28;20288;-49
2023/01/30 08:40:49;;;;;;;8.60;7.20;;;-3.90;99.90;;;;;;5010485;28;20288;-51
2023/01/30 08:43:16;;;;;;;7.93;6.57;;;-4.10;99.90;;;;;;5008988;28;20542;-49
2023/01/30 08:45:44;;;;;;;10.97;7.23;;;-4.60;99.90;;;;;;5010162;28;20536;-50
2023/01/30 08:48:11;;;;;;;16.43;8.27;;;-4.40;99.90;;;;;;5010190;28;20907;-49
2023/01/30 08:50:38;;;;;;;8.00;5.67;;;-4.60;99.90;;;;;;5009776;28;20531;-49
2023/01/30 08:53:06;;;;;;;4.13;3.22;;;-4.60;99.90;;;;;;5009415;28;20526;-50
2023/01/30 08:55:32;;;;;;;4.23;3.40;;;-4.30;99.90;;;;;;5009560;28;20288;-49
2023/01/30 08:57:59;;;;;;;3.77;3.40;;;-4.00;99.90;;;;;;5010229;28;20520;-49
2023/01/30 09:00:28;;;;;;;7.40;5.57;;;-4.00;99.90;;;;;;5009687;28;20444;-51
2023/01/30 09:02:57;;;;;;;12.73;7.20;;;-3.90;99.90;;;;;;5009223;28;20457;-51
2023/01/30 09:05:24;;;;;;;7.60;3.43;;;-3.90;99.90;;;;;;5009414;28;20586;-49
2023/01/30 09:07:51;;;;;;;3.40;2.80;;;-4.40;99.90;;;;;;5009836;28;20562;-49
2023/01/30 09:10:18;;;;;;;6.60;3.30;;;-4.40;99.90;;;;;;5009039;28;20864;-51
2023/01/30 09:12:45;;;;;;;7.13;6.33;;;-4.40;99.90;;;;;;5003059;28;20883;-51
2023/01/30 09:15:12;;;;;;;4.80;4.40;;;-4.60;99.90;;;;;;5007279;28;20476;-49
2023/01/30 09:17:39;;;;;;;5.23;4.10;;;-4.70;99.90;;;;;;5019687;28;21119;-50
2023/01/30 09:20:11;;;;;;;5.70;4.60;;;-4.50;99.90;;;;;;5013411;28;20456;-49
2023/01/30 09:22:38;;;;;;;8.50;6.27;;;-4.10;99.90;;;;;;5007469;28;20987;-52
2023/01/30 09:25:05;;;;;;;6.20;5.57;;;-4.20;99.90;;;;;;5007516;28;21045;-49
2023/01/30 09:27:33;;;;;;;19.60;11.83;;;-4.40;99.90;;;;;;5008221;28;20567;-50
2023/01/30 09:29:59;;;;;;;9.87;8.93;;;-5.00;99.90;;;;;;5008879;28;20532;-51
2023/01/30 09:32:26;;;;;;;11.20;10.10;;;-5.20;99.90;;;;;;5009295;28;20530;-51
2023/01/30 09:34:53;;;;;;;8.43;6.10;;;-5.20;99.90;;;;;;5011396;28;20308;-50
2023/01/30 09:37:21;;;;;;;6.00;4.97;;;-4.90;99.90;;;;;;5026291;28;20283;-50
2023/01/30 09:39:48;;;;;;;7.97;6.47;;;-4.70;99.90;;;;;;5030352;28;20303;-50
2023/01/30 09:42:32;;;;;;;8.90;6.00;;;-4.30;99.90;;;;;;5031229;28;20534;-51
2023/01/30 09:45:26;;;;;;;11.63;6.22;;;-4.50;99.90;;;;;;5030526;28;20558;-51
2023/01/30 09:48:03;;;;;;;5.22;4.72;;;-4.60;99.90;;;;;;5012855;28;20220;-49
2023/01/30 09:50:54;;;;;;;3.45;3.15;;;-4.30;99.90;;;;;;5012703;28;20279;-50
2023/01/30 09:53:31;;;;;;;5.43;5.03;;;-3.70;99.90;;;;;;5011943;28;20236;-50
2023/01/30 09:55:59;;;;;;;9.00;6.60;;;-3.30;99.90;;;;;;5013212;28;20299;-49
2023/01/30 09:58:32;;;;;;;7.10;5.63;;;-3.40;99.90;;;;;;5012716;28;20749;-48
2023/01/30 10:01:07;;;;;;;22.67;16.37;;;-3.50;99.90;;;;;;5012831;28;20528;-50
2023/01/30 10:03:39;;;;;;;11.97;10.37;;;-3.60;99.90;;;;;;5011627;28;20897;-48
2023/01/30 10:06:11;;;;;;;14.27;10.83;;;-3.60;99.90;;;;;;5012843;28;20537;-49
2023/01/30 10:08:52;;;;;;;13.17;6.97;;;-3.20;99.90;;;;;;5012944;28;20532;-48
2023/01/30 10:11:33;;;;;;;9.33;6.90;;;-2.90;99.90;;;;;;5012306;28;20559;-49
2023/01/30 10:14:24;;;;;;;7.60;5.40;;;-2.70;99.90;;;;;;5011892;28;20476;-49
2023/01/30 10:17:02;;;;;;;7.53;5.63;;;-2.60;99.90;;;;;;5012691;28;20528;-50
2023/01/30 10:19:47;;;;;;;10.03;7.80;;;-2.50;99.90;;;;;;5011685;28;21026;-49
2023/01/30 10:22:29;;;;;;;7.83;5.30;;;-2.40;99.90;;;;;;5012513;28;20535;-49
2023/01/30 10:25:08;;;;;;;7.70;6.50;;;-2.40;99.90;;;;;;5011995;28;20927;-48
2023/01/30 10:27:36;;;;;;;10.40;7.23;;;-2.30;99.90;;;;;;5012698;28;20909;-49
2023/01/30 10:30:07;;;;;;;7.73;6.93;;;-2.20;99.90;;;;;;5012580;28;21005;-49
2023/01/30 10:32:41;;;;;;;10.00;5.73;;;-2.20;99.90;;;;;;5012172;28;20539;-51
2023/01/30 10:35:16;;;;;;;6.90;5.43;;;-2.10;99.90;;;;;;5011740;28;20548;-50
2023/01/30 10:37:48;;;;;;;12.47;5.77;;;-2.40;99.90;;;;;;5012361;28;20883;-49
2023/01/30 10:40:22;;;;;;;6.13;5.10;;;-2.30;99.90;;;;;;5011931;28;20895;-51
2023/01/30 10:42:59;;;;;;;8.00;6.03;;;-2.10;99.90;;;;;;5011958;28;20564;-51
2023/01/30 10:45:34;;;;;;;9.77;6.30;;;-1.90;99.90;;;;;;5010869;28;20523;-49
2023/01/30 10:48:20;;;;;;;13.90;8.50;;;-1.80;99.90;;;;;;5012312;28;21054;-49
2023/01/30 10:50:52;;;;;;;14.63;10.73;;;-1.50;99.90;;;;;;5012393;28;20546;-48
2023/01/30 10:53:28;;;;;;;11.07;7.47;;;-1.40;99.90;;;;;;5009683;28;20569;-49
2023/01/30 10:56:03;;;;;;;20.10;14.13;;;-1.20;99.90;;;;;;5012145;28;20542;-49
2023/01/30 10:58:39;;;;;;;10.50;7.70;;;-1.20;99.90;;;;;;5010326;28;20546;-50
2023/01/30 11:01:11;;;;;;;8.47;6.03;;;-1.20;99.90;;;;;;5010649;28;20497;-51
2023/01/30 11:03:42;;;;;;;9.03;5.10;;;-1.30;99.90;;;;;;5009244;28;20800;-49
2023/01/30 11:06:15;;;;;;;6.33;4.13;;;-1.10;99.90;;;;;;5010470;28;20451;-49
2023/01/30 11:08:42;;;;;;;4.77;3.50;;;-0.90;99.90;;;;;;5009910;28;20790;-49
2023/01/30 11:11:29;;;;;;;4.50;3.30;;;-0.80;99.90;;;;;;5009908;28;20530;-49
2023/01/30 11:14:04;;;;;;;2.90;2.57;;;-0.80;99.90;;;;;;5047986;23;21069;-79
2023/01/30 11:16:33;;;;;;;3.10;2.60;;;-0.70;99.90;;;;;;5054770;28;20484;-79
2023/01/30 11:19:05;;;;;;;3.53;2.40;;;-0.60;99.90;;;;;;5054189;28;20882;-79
2023/01/30 11:21:32;;;;;;;3.47;3.17;;;-0.40;99.90;;;;;;5053661;28;20521;-78
2023/01/30 11:24:05;;;;;;;3.73;3.33;;;-0.70;99.90;;;;;;5053738;28;20868;-78
2023/01/30 11:26:36;;;;;;;3.23;2.93;;;-0.80;99.90;;;;;;5054064;28;20441;-79
2023/01/30 11:29:22;;;;;;;3.77;2.73;;;-0.60;99.90;;;;;;5056700;28;20498;-80
2023/01/30 11:31:50;;;;;;;3.60;2.40;;;-0.40;99.90;;;;;;5058218;28;20477;-79
2023/01/30 11:34:19;;;;;;;3.87;2.53;;;-0.30;99.90;;;;;;5055136;28;20457;-79
2023/01/30 11:36:47;;;;;;;3.93;3.10;;;-0.30;99.90;;;;;;5044048;28;20529;-79
2023/01/30 11:39:23;;;;;;;5.07;3.03;;;-0.30;99.90;;;;;;5041215;28;20453;-79
2023/01/30 11:42:04;;;;;;;7.67;2.77;;;-0.50;99.90;;;;;;5043506;28;20478;-79
2023/01/30 11:44:34;;;;;;;5.17;3.10;;;-0.80;99.90;;;;;;5032233;28;20445;-79
2023/01/30 11:47:03;;;;;;;3.50;3.10;;;-0.90;99.90;;;;;;5032724;28;20906;-79
2023/01/30 11:49:36;;;;;;;3.83;2.70;;;-0.70;99.90;;;;;;5031397;28;20565;-79
2023/01/30 11:52:04;;;;;;;4.30;3.20;;;-0.60;99.90;;;;;;5048054;28;20517;-79
2023/01/30 11:54:34;;;;;;;3.77;2.90;;;-0.40;99.90;;;;;;5052150;28;21019;-79
2023/01/30 11:57:04;;;;;;;5.47;2.93;;;-0.40;99.90;;;;;;5053336;28;20504;-79
2023/01/30 11:59:35;;;;;;;6.13;2.57;;;-1.00;99.90;;;;;;5053185;28;20465;-79
2023/01/30 12:02:06;;;;;;;5.03;3.03;;;-0.90;99.90;;;;;;5053492;28;20446;-79
2023/01/30 12:04:33;;;;;;;5.17;3.60;;;-0.50;99.90;;;;;;5052890;28;20438;-79
2023/01/30 12:07:15;;;;;;;4.07;3.70;;;-0.40;99.90;;;;;;5052918;28;20560;-79
2023/01/30 12:09:41;;;;;;;4.40;3.07;;;-0.40;99.90;;;;;;5052833;28;20709;-79
2023/01/30 12:15:22;;;;;;;7.23;3.20;;;-0.40;99.90;;;;;;5146729;27;20975;-50
2023/01/30 12:17:56;;;;;;;8.37;5.17;;;0.00;99.90;;;;;;5147070;27;20520;-52
2023/01/30 12:20:32;;;;;;;3.87;3.57;;;0.10;99.90;;;;;;5147162;27;20532;-50
2023/01/30 12:23:08;;;;;;;3.80;2.43;;;0.20;99.90;;;;;;5146470;27;20525;-53
2023/01/30 12:25:41;;;;;;;3.03;2.73;;;0.40;99.90;;;;;;5147651;27;20533;-52
2023/01/30 12:28:18;;;;;;;3.10;2.23;;;0.50;99.90;;;;;;5156829;22;20575;-80
2023/01/30 12:30:51;;;;;;;4.67;3.23;;;0.50;99.90;;;;;;5091442;28;20511;-80
2023/01/30 12:33:18;;;;;;;2.90;2.50;;;0.50;99.90;;;;;;5090367;28;20460;-80
2023/01/30 12:35:55;;;;;;;3.20;2.40;;;0.60;99.90;;;;;;5089827;28;20527;-80
2023/01/30 12:38:43;;;;;;;3.07;2.77;;;0.20;99.90;;;;;;5089019;28;21032;-80
2023/01/30 12:41:24;;;;;;;4.60;2.90;;;0.20;99.90;;;;;;5090320;28;20519;-80
2023/01/30 12:44:18;;;;;;;4.63;2.90;;;0.50;99.90;;;;;;5089796;28;20476;-80
2023/01/30 12:46:59;;;;;;;4.53;3.77;;;0.60;99.90;;;;;;5089561;28;20512;-79
2023/01/30 12:49:41;;;;;;;4.70;3.10;;;0.80;99.90;;;;;;5090259;28;20542;-80
2023/01/30 12:52:28;;;;;;;3.57;3.27;;;0.80;99.90;;;;;;5089837;28;20447;-80
2023/01/30 12:55:02;;;;;;;5.97;2.67;;;0.80;99.90;;;;;;5090119;28;20551;-80
2023/01/30 12:57:37;;;;;;;5.80;2.87;;;0.90;99.90;;;;;;5103139;28;20471;-80
2023/01/30 13:00:19;;;;;;;3.10;2.53;;;1.00;99.90;;;;;;5103710;28;20480;-80
2023/01/30 13:03:09;;;;;;;4.80;3.33;;;1.00;99.90;;;;;;5091266;28;20884;-80
2023/01/30 13:05:43;;;;;;;3.43;2.80;;;1.10;99.90;;;;;;5091823;28;20452;-80
2023/01/30 13:08:25;;;;;;;3.10;2.90;;;1.10;99.90;;;;;;5090799;28;20503;-79
2023/01/30 13:11:04;;;;;;;2.93;2.73;;;1.10;99.90;;;;;;5089950;28;20435;-80
2023/01/30 13:13:41;;;;;;;5.07;3.00;;;1.10;99.90;;;;;;5090562;28;20532;-80